createdAt,value
2023-04-20T00:01:59.186Z,0.80
2023-04-20T00:04:26.144Z,0.93
2023-04-20T00:06:53.493Z,0.95
2023-04-20T00:09:20.408Z,1.00
2023-04-20T00:11:47.368Z,1.33
2023-04-20T00:14:14.516Z,0.90
2023-04-20T00:16:41.711Z,0.98
2023-04-20T00:19:09.425Z,1.50
2023-04-20T00:21:38.764Z,1.00
2023-04-20T00:24:06.338Z,1.00
2023-04-20T00:26:34.011Z,1.38
2023-04-20T00:29:00.856Z,1.30
2023-04-20T00:31:28.997Z,0.90
2023-04-20T00:33:56.326Z,1.02
2023-04-20T00:36:24.423Z,1.15
2023-04-20T00:38:51.285Z,1.20
2023-04-20T00:41:18.187Z,0.88
2023-04-20T00:43:54.399Z,1.00
2023-04-20T00:46:21.886Z,1.27
2023-04-20T00:48:52.896Z,1.02
2023-04-20T00:51:23.803Z,1.00
2023-04-20T00:53:50.758Z,0.98
2023-04-20T00:56:17.700Z,1.35
2023-04-20T00:58:44.779Z,1.20
2023-04-20T01:01:12.121Z,1.38
2023-04-20T01:03:42.464Z,1.27
2023-04-20T01:06:12.036Z,1.73
2023-04-20T01:08:51.419Z,1.10
2023-04-20T01:11:18.854Z,1.63
2023-04-20T01:13:46.051Z,1.40
2023-04-20T01:16:13.073Z,1.23
2023-04-20T01:18:44.673Z,1.42
2023-04-20T01:21:12.749Z,1.40
2023-04-20T01:23:39.855Z,1.65
2023-04-20T01:26:10.585Z,1.48
2023-04-20T01:28:37.752Z,1.30
2023-04-20T01:31:05.270Z,1.70
2023-04-20T01:33:32.303Z,1.55
2023-04-20T01:35:59.366Z,2.10
2023-04-20T01:38:26.474Z,1.70
2023-04-20T01:40:54.086Z,1.60
2023-04-20T01:43:21.417Z,1.38
2023-04-20T01:45:48.233Z,1.48
2023-04-20T01:48:15.312Z,2.20
2023-04-20T01:50:42.167Z,3.03
2023-04-20T01:53:09.655Z,2.15
2023-04-20T01:55:36.633Z,2.65
2023-04-20T01:58:04.193Z,1.90
2023-04-20T02:00:31.030Z,1.88
2023-04-20T02:02:58.179Z,1.83
2023-04-20T02:05:25.407Z,2.10
2023-04-20T02:07:52.300Z,2.20
2023-04-20T02:10:19.857Z,2.65
2023-04-20T02:12:46.941Z,2.38
2023-04-20T02:15:13.858Z,2.28
2023-04-20T02:17:42.089Z,1.80
2023-04-20T02:20:09.490Z,2.17
2023-04-20T02:22:36.991Z,2.05
2023-04-20T02:25:08.138Z,2.38
2023-04-20T02:27:35.145Z,2.40
2023-04-20T02:30:02.054Z,3.17
2023-04-20T02:32:29.048Z,2.05
2023-04-20T02:34:56.350Z,2.15
2023-04-20T02:37:23.313Z,2.22
2023-04-20T02:39:50.281Z,2.35
2023-04-20T02:42:17.094Z,2.55
2023-04-20T02:44:43.916Z,2.90
2023-04-20T02:47:10.852Z,2.85
2023-04-20T02:49:38.697Z,3.35
2023-04-20T02:52:06.148Z,3.53
2023-04-20T02:54:33.024Z,3.78
2023-04-20T02:56:59.897Z,4.70
2023-04-20T02:59:26.967Z,3.65
2023-04-20T03:01:54.125Z,3.35
2023-04-20T03:04:22.199Z,3.08
2023-04-20T03:06:50.958Z,4.28
2023-04-20T03:09:18.991Z,3.70
2023-04-20T03:11:46.255Z,3.22
2023-04-20T03:14:13.123Z,3.47
2023-04-20T03:16:40.051Z,3.40
2023-04-20T03:19:07.052Z,3.90
2023-04-20T03:21:34.259Z,3.67
2023-04-20T03:24:01.371Z,3.63
2023-04-20T03:26:28.647Z,3.05
2023-04-20T03:28:55.539Z,3.50
2023-04-20T03:31:24.115Z,3.58
2023-04-20T03:33:51.087Z,3.97
2023-04-20T03:36:18.003Z,3.25
2023-04-20T03:38:44.868Z,4.03
2023-04-20T03:41:11.884Z,3.58
2023-04-20T03:43:38.831Z,3.72
2023-04-20T03:46:05.910Z,3.72
2023-04-20T03:48:33.371Z,3.60
2023-04-20T03:51:00.304Z,4.00
2023-04-20T03:53:29.189Z,4.18
2023-04-20T03:55:56.816Z,4.60
2023-04-20T03:58:23.716Z,5.30
2023-04-20T04:00:50.824Z,4.13
2023-04-20T04:03:18.113Z,4.20
2023-04-20T04:05:45.127Z,4.10
2023-04-20T04:08:12.431Z,4.47
2023-04-20T04:10:39.647Z,4.60
2023-04-20T04:13:06.678Z,4.22
2023-04-20T04:15:33.621Z,4.10
2023-04-20T04:18:00.834Z,4.55
2023-04-20T04:20:28.217Z,4.00
2023-04-20T04:22:55.307Z,4.22
2023-04-20T04:25:23.358Z,3.80
2023-04-20T04:27:51.341Z,4.47
2023-04-20T04:30:20.037Z,4.20
2023-04-20T04:32:47.090Z,4.43
2023-04-20T04:35:14.093Z,4.07
2023-04-20T04:37:41.306Z,4.03
2023-04-20T04:40:09.353Z,4.70
2023-04-20T04:42:36.677Z,4.85
2023-04-20T04:45:05.038Z,4.45
2023-04-20T04:47:36.924Z,4.22
2023-04-20T04:50:04.701Z,5.05
2023-04-20T04:52:33.088Z,4.30
2023-04-20T04:55:00.157Z,3.95
2023-04-20T04:57:27.382Z,4.78
2023-04-20T04:59:54.221Z,4.28
2023-04-20T05:02:22.065Z,4.10
2023-04-20T05:04:49.168Z,4.07
2023-04-20T05:07:17.499Z,4.22
2023-04-20T05:09:44.398Z,4.50
2023-04-20T05:12:11.902Z,4.50
2023-04-20T05:14:38.842Z,4.50
2023-04-20T05:17:05.750Z,4.60
2023-04-20T05:19:32.699Z,4.50
2023-04-20T05:21:59.744Z,5.55
2023-04-20T05:24:27.175Z,4.57
2023-04-20T05:26:54.086Z,5.25
2023-04-20T05:29:23.946Z,4.82
2023-04-20T05:31:51.038Z,4.28
2023-04-20T05:34:17.944Z,5.20
2023-04-20T05:36:44.972Z,4.00
2023-04-20T05:39:12.059Z,5.07
2023-04-20T05:41:39.708Z,4.72
2023-04-20T05:44:06.585Z,5.00
2023-04-20T05:46:33.495Z,4.68
2023-04-20T05:49:00.408Z,5.13
2023-04-20T05:51:30.706Z,4.00
2023-04-20T05:53:57.861Z,4.80
2023-04-20T05:56:24.862Z,5.28
2023-04-20T05:58:52.375Z,4.53
2023-04-20T06:01:21.765Z,4.63
2023-04-20T06:03:49.640Z,5.20
2023-04-20T06:06:16.953Z,4.20
2023-04-20T06:08:44.146Z,4.78
2023-04-20T06:11:10.953Z,4.82
2023-04-20T06:13:43.644Z,5.15
2023-04-20T06:16:13.475Z,4.47
2023-04-20T06:18:40.407Z,5.43
2023-04-20T06:21:10.152Z,3.72
2023-04-20T06:23:37.896Z,4.63
2023-04-20T06:26:08.665Z,3.83
2023-04-20T06:28:36.536Z,5.00
2023-04-20T06:31:04.496Z,3.60
2023-04-20T06:33:31.753Z,4.47
2023-04-20T06:35:59.296Z,3.95
2023-04-20T06:38:26.322Z,3.90
2023-04-20T06:40:53.663Z,3.92
2023-04-20T06:43:22.486Z,4.78
2023-04-20T06:45:49.578Z,4.28
2023-04-20T06:48:31.668Z,3.65
2023-04-20T06:50:59.896Z,4.68
2023-04-20T06:53:26.763Z,3.97
2023-04-20T06:55:57.236Z,3.75
2023-04-20T06:58:26.760Z,3.83
2023-04-20T07:00:53.726Z,3.25
2023-04-20T07:03:21.193Z,2.60
2023-04-20T07:05:48.252Z,3.28
2023-04-20T07:08:16.134Z,3.63
2023-04-20T07:10:44.990Z,3.00
2023-04-20T07:13:11.930Z,3.00
2023-04-20T07:15:40.131Z,3.05
2023-04-20T07:18:07.033Z,3.22
2023-04-20T07:20:34.118Z,2.72
2023-04-20T07:23:01.251Z,2.60
2023-04-20T07:25:28.234Z,2.92
2023-04-20T07:27:55.197Z,3.65
2023-04-20T07:30:21.984Z,3.55
2023-04-20T07:32:49.095Z,2.90
2023-04-20T07:35:15.922Z,2.83
2023-04-20T07:37:42.821Z,3.22
2023-04-20T07:40:10.355Z,2.38
2023-04-20T07:42:37.626Z,2.72
2023-04-20T07:45:05.609Z,2.72
2023-04-20T07:47:33.830Z,2.85
2023-04-20T07:50:00.786Z,2.50
2023-04-20T07:52:27.762Z,3.58
2023-04-20T07:54:56.883Z,2.65
2023-04-20T07:57:24.196Z,2.15
2023-04-20T07:59:51.783Z,2.03
2023-04-20T08:02:18.759Z,2.40
2023-04-20T08:04:46.603Z,2.60
2023-04-20T08:07:14.243Z,1.85
2023-04-20T08:09:47.528Z,2.38
2023-04-20T08:12:14.436Z,2.10
2023-04-20T08:14:41.478Z,1.88
2023-04-20T08:17:08.920Z,1.77
2023-04-20T08:19:36.589Z,1.60
2023-04-20T08:22:05.440Z,1.80
2023-04-20T08:24:32.782Z,2.40
2023-04-20T08:27:01.195Z,1.80
2023-04-20T08:29:28.146Z,1.63
2023-04-20T08:31:55.136Z,2.10
2023-04-20T08:34:22.035Z,1.70
2023-04-20T08:36:49.355Z,2.28
2023-04-20T08:39:20.584Z,1.83
2023-04-20T08:41:48.214Z,1.40
2023-04-20T08:44:15.118Z,1.80
2023-04-20T08:46:42.388Z,1.58
2023-04-20T08:49:12.272Z,1.80
2023-04-20T08:51:46.377Z,1.80
2023-04-20T08:56:45.793Z,1.77
2023-04-20T08:59:14.433Z,1.20
2023-04-20T09:01:41.945Z,1.27
2023-04-20T09:04:25.793Z,1.20
2023-04-20T09:06:54.187Z,0.90
2023-04-20T09:09:21.927Z,1.13
2023-04-20T09:11:48.855Z,1.00
2023-04-20T09:14:16.580Z,1.05
2023-04-20T09:16:51.128Z,1.58
2023-04-20T09:21:53.002Z,1.67
2023-04-20T09:24:20.849Z,1.63
2023-04-20T09:26:50.880Z,1.10
2023-04-20T09:29:22.497Z,1.15
2023-04-20T09:31:49.743Z,1.67
2023-04-20T09:34:16.928Z,0.90
2023-04-20T09:36:50.191Z,2.20
2023-04-20T09:39:18.924Z,0.87
2023-04-20T09:41:45.890Z,0.63
2023-04-20T09:44:12.885Z,1.30
2023-04-20T09:46:40.676Z,0.80
2023-04-20T09:49:08.623Z,1.05
2023-04-20T09:51:36.988Z,1.00
2023-04-20T09:54:04.859Z,0.85
2023-04-20T09:56:31.879Z,0.98
2023-04-20T09:58:59.154Z,0.90
2023-04-20T10:01:26.251Z,0.63
2023-04-20T10:03:56.685Z,0.65
2023-04-20T10:06:28.495Z,0.70
2023-04-20T10:08:55.430Z,0.52
2023-04-20T10:11:34.284Z,0.60
2023-04-20T10:14:18.869Z,0.60
2023-04-20T10:19:13.745Z,0.98
2023-04-20T10:21:48.019Z,0.60
2023-04-20T10:24:15.782Z,0.70
2023-04-20T10:26:45.231Z,0.70
2023-04-20T10:29:23.516Z,0.60
2023-04-20T10:31:50.337Z,0.82
2023-04-20T10:34:17.686Z,0.80
2023-04-20T10:36:45.222Z,0.65
2023-04-20T10:39:19.936Z,0.75
2023-04-20T10:41:58.582Z,0.70
2023-04-20T10:44:25.699Z,0.90
2023-04-20T10:46:52.898Z,0.70
2023-04-20T10:49:20.099Z,0.52
2023-04-20T10:51:50.764Z,1.45
2023-04-20T10:54:18.448Z,0.50
2023-04-20T10:56:54.570Z,0.50
2023-04-20T10:59:23.404Z,0.52
2023-04-20T11:01:51.023Z,0.70
2023-04-20T11:04:19.136Z,0.70
2023-04-20T11:06:48.177Z,0.63
2023-04-20T11:09:23.850Z,0.60
2023-04-20T11:12:06.328Z,0.60
2023-04-20T11:14:40.771Z,0.70
2023-04-20T11:17:07.680Z,0.60
2023-04-20T11:19:35.843Z,0.70
2023-04-20T11:22:03.310Z,0.77
2023-04-20T11:24:31.503Z,0.68
2023-04-20T11:26:58.827Z,0.55
2023-04-20T11:29:36.003Z,0.85
2023-04-20T11:32:04.761Z,2.47
2023-04-20T11:34:32.296Z,0.68
2023-04-20T11:37:10.784Z,0.60
2023-04-20T11:39:37.774Z,0.70
2023-04-20T11:42:05.011Z,0.82
2023-04-20T11:44:31.999Z,0.70
2023-04-20T11:46:59.728Z,0.68
2023-04-20T11:49:27.632Z,0.63
2023-04-20T11:51:56.627Z,0.77
2023-04-20T11:54:24.195Z,0.60
2023-04-20T11:56:51.349Z,0.60
2023-04-20T11:59:20.627Z,0.50
2023-04-20T12:01:48.371Z,0.52
2023-04-20T12:04:16.281Z,0.73
2023-04-20T12:06:43.722Z,0.60
2023-04-20T12:09:10.473Z,0.40
2023-04-20T12:11:37.350Z,0.60
2023-04-20T12:14:05.030Z,0.88
2023-04-20T12:16:32.122Z,0.40
2023-04-20T12:18:58.981Z,0.52
2023-04-20T12:21:26.017Z,0.60
2023-04-20T12:23:52.981Z,0.40
2023-04-20T12:26:19.856Z,0.50
2023-04-20T12:28:46.643Z,0.60
2023-04-20T12:31:13.556Z,0.40
2023-04-20T12:33:40.475Z,0.50
2023-04-20T12:36:07.641Z,0.60
2023-04-20T12:38:34.461Z,0.50
2023-04-20T12:41:01.403Z,0.60
2023-04-20T12:43:28.842Z,0.50
2023-04-20T12:45:55.556Z,0.40
2023-04-20T12:48:22.472Z,0.50
2023-04-20T12:50:50.797Z,0.30
2023-04-20T12:53:17.556Z,0.50
2023-04-20T12:55:44.520Z,0.50
2023-04-20T12:58:11.524Z,0.40
2023-04-20T13:00:38.342Z,0.30
2023-04-20T13:03:05.395Z,0.82
2023-04-20T13:05:32.658Z,0.50
2023-04-20T13:07:59.501Z,0.30
2023-04-20T13:10:26.440Z,0.43
2023-04-20T13:12:53.403Z,0.40
2023-04-20T13:15:31.934Z,0.40
2023-04-20T13:18:09.831Z,0.40
2023-04-20T13:20:39.577Z,0.60
2023-04-20T13:23:06.672Z,0.43
2023-04-20T13:25:33.622Z,0.50
2023-04-20T13:28:01.265Z,0.30
2023-04-20T13:30:30.688Z,0.30
2023-04-20T13:32:57.528Z,0.40
2023-04-20T13:35:25.585Z,0.32
2023-04-20T13:37:52.524Z,0.52
2023-04-20T13:40:19.302Z,0.73
2023-04-20T13:42:46.132Z,0.40
2023-04-20T13:45:12.932Z,0.70
2023-04-20T13:47:40.258Z,0.50
2023-04-20T13:50:08.009Z,0.50
2023-04-20T13:52:35.068Z,0.50
2023-04-20T13:55:02.185Z,0.60
2023-04-20T13:57:31.638Z,0.50
2023-04-20T14:00:01.689Z,0.50
2023-04-20T14:02:29.106Z,0.43
2023-04-20T14:04:56.821Z,0.57
2023-04-20T14:07:23.718Z,0.50
2023-04-20T14:09:51.116Z,0.70
2023-04-20T14:12:17.974Z,0.80
2023-04-20T14:14:44.960Z,0.70
2023-04-20T14:17:11.959Z,0.68
2023-04-20T14:19:38.913Z,2.17
2023-04-20T14:22:05.913Z,0.73
2023-04-20T14:24:32.789Z,0.75
2023-04-20T14:27:00.454Z,0.80
2023-04-20T14:29:27.433Z,0.80
2023-04-20T14:31:54.498Z,1.00
2023-04-20T14:34:21.630Z,1.35
2023-04-20T14:36:48.666Z,1.33
2023-04-20T14:39:15.900Z,0.90
2023-04-20T14:41:43.262Z,0.93
2023-04-20T14:44:10.145Z,1.17
2023-04-20T14:46:37.198Z,1.08
2023-04-20T14:49:04.311Z,1.70
2023-04-20T14:51:32.375Z,0.80
2023-04-20T14:53:59.604Z,0.90
2023-04-20T14:56:26.612Z,1.63
2023-04-20T14:59:02.450Z,1.00
2023-04-20T15:01:29.430Z,1.10
2023-04-20T15:03:56.693Z,1.00
2023-04-20T15:06:23.820Z,1.30
2023-04-20T15:08:52.621Z,1.55
2023-04-20T15:11:19.439Z,1.13
2023-04-20T15:13:47.294Z,1.50
2023-04-20T15:16:14.467Z,1.48
2023-04-20T15:18:41.403Z,1.30
2023-04-20T15:21:08.809Z,1.10
2023-04-20T15:23:35.658Z,1.27
2023-04-20T15:26:02.702Z,1.20
2023-04-20T15:28:29.547Z,2.13
2023-04-20T15:30:56.710Z,2.17
2023-04-20T15:33:23.903Z,1.58
2023-04-20T15:35:51.228Z,1.70
2023-04-20T15:38:18.094Z,1.38
2023-04-20T15:40:45.223Z,1.45
2023-04-20T15:43:12.207Z,1.77
2023-04-20T15:45:39.109Z,1.48
2023-04-20T15:50:33.008Z,1.77
2023-04-20T15:52:59.870Z,1.45
2023-04-20T15:55:26.869Z,1.55
2023-04-20T15:57:57.316Z,2.05
2023-04-20T16:00:24.858Z,1.55
2023-04-20T16:02:53.523Z,1.58
2023-04-20T16:05:21.486Z,1.50
2023-04-20T16:07:48.401Z,1.55
2023-04-20T16:10:15.126Z,1.67
2023-04-20T16:12:41.974Z,1.80
2023-04-20T16:15:09.588Z,1.70
2023-04-20T16:17:36.625Z,1.67
2023-04-20T16:20:05.041Z,1.58
2023-04-20T16:22:32.144Z,1.98
2023-04-20T16:25:00.536Z,2.10
2023-04-20T16:27:27.819Z,1.77
2023-04-20T16:29:54.892Z,1.92
2023-04-20T16:32:22.150Z,1.38
2023-04-20T16:34:49.195Z,1.92
2023-04-20T16:37:16.078Z,1.60
2023-04-20T16:39:43.268Z,1.40
2023-04-20T16:42:10.123Z,2.13
2023-04-20T16:44:37.316Z,1.65
2023-04-20T16:47:05.592Z,1.83
2023-04-20T16:49:32.683Z,1.42
2023-04-20T16:51:59.759Z,1.10
2023-04-20T16:54:29.753Z,1.02
2023-04-20T16:57:03.356Z,1.33
2023-04-20T16:59:33.390Z,1.10
2023-04-20T17:02:00.357Z,1.15
2023-04-20T17:04:27.618Z,1.48
2023-04-20T17:06:54.732Z,1.33
2023-04-20T17:09:22.672Z,1.10
2023-04-20T17:11:49.516Z,1.80
2023-04-20T17:14:16.900Z,1.20
2023-04-20T17:16:44.348Z,1.38
2023-04-20T17:19:11.506Z,1.30
2023-04-20T17:21:40.489Z,1.20
2023-04-20T17:24:08.558Z,1.00
2023-04-20T17:26:35.395Z,1.13
2023-04-20T17:29:02.342Z,1.00
2023-04-20T17:31:31.420Z,0.90
2023-04-20T17:33:58.284Z,1.35
2023-04-20T17:36:25.337Z,1.20
2023-04-20T17:38:52.094Z,1.05
2023-04-20T17:41:18.848Z,1.00
2023-04-20T17:43:45.601Z,0.90
2023-04-20T17:46:15.086Z,1.02
2023-04-20T17:48:42.060Z,1.23
2023-04-20T17:51:09.056Z,1.30
2023-04-20T17:53:35.977Z,1.30
2023-04-20T17:56:02.773Z,1.77
2023-04-20T17:58:29.654Z,1.60
2023-04-20T18:00:56.393Z,1.95
2023-04-20T18:03:23.506Z,2.05
2023-04-20T18:05:51.308Z,1.65
2023-04-20T18:08:21.115Z,2.00
2023-04-20T18:10:47.892Z,1.80
2023-04-20T18:13:14.691Z,1.80
2023-04-20T18:15:41.671Z,1.90
2023-04-20T18:18:08.638Z,1.80
2023-04-20T18:20:35.705Z,1.63
2023-04-20T18:23:02.755Z,1.52
2023-04-20T18:25:29.503Z,1.40
2023-04-20T18:27:56.223Z,1.58
2023-04-20T18:30:23.181Z,2.42
2023-04-20T18:32:50.272Z,1.65
2023-04-20T18:35:17.065Z,2.85
2023-04-20T18:37:43.976Z,1.50
2023-04-20T18:40:11.217Z,1.95
2023-04-20T18:42:38.074Z,2.25
2023-04-20T18:45:06.239Z,1.70
2023-04-20T18:47:33.262Z,2.22
2023-04-20T18:50:00.048Z,2.40
2023-04-20T18:52:26.888Z,2.40
2023-04-20T18:54:55.348Z,2.30
2023-04-20T18:57:26.771Z,1.73
2023-04-20T19:02:20.660Z,2.08
2023-04-20T19:04:47.474Z,2.30
2023-04-20T19:07:14.357Z,2.30
2023-04-20T19:09:41.159Z,2.15
2023-04-20T19:12:07.908Z,2.75
2023-04-20T19:14:34.907Z,2.45
2023-04-20T19:17:04.591Z,2.05
2023-04-20T19:19:31.430Z,2.13
2023-04-20T19:22:00.623Z,2.20
2023-04-20T19:24:27.932Z,2.10
2023-04-20T19:26:54.691Z,2.30
2023-04-20T19:29:21.473Z,2.67
2023-04-20T19:31:48.414Z,2.75
2023-04-20T19:34:15.670Z,2.10
2023-04-20T19:36:42.586Z,2.30
2023-04-20T19:39:09.655Z,2.45
2023-04-20T19:41:36.877Z,2.17
2023-04-20T19:44:06.375Z,2.38
2023-04-20T19:46:33.952Z,2.50
2023-04-20T19:49:01.033Z,2.88
2023-04-20T19:51:27.933Z,3.92
2023-04-20T19:53:54.726Z,2.50
2023-04-20T19:56:21.515Z,2.90
2023-04-20T19:58:48.313Z,2.83
2023-04-20T20:01:15.149Z,3.20
2023-04-20T20:03:43.057Z,2.92
2023-04-20T20:06:10.173Z,3.70
2023-04-20T20:08:37.026Z,3.20
2023-04-20T20:11:04.077Z,3.30
2023-04-20T20:13:31.115Z,2.95
2023-04-20T20:15:59.295Z,3.30
2023-04-20T20:18:26.661Z,3.55
2023-04-20T20:20:53.429Z,2.90
2023-04-20T20:23:21.389Z,2.97
2023-04-20T20:25:48.219Z,2.92
2023-04-20T20:28:15.029Z,3.55
2023-04-20T20:30:45.142Z,3.25
2023-04-20T20:33:12.589Z,3.90
2023-04-20T20:35:39.972Z,4.47
2023-04-20T20:38:07.948Z,3.90
2023-04-20T20:40:35.316Z,4.28
2023-04-20T20:43:02.467Z,3.83
2023-04-20T20:45:29.722Z,4.45
2023-04-20T20:47:56.934Z,3.63
2023-04-20T20:50:23.844Z,4.65
2023-04-20T20:52:50.744Z,4.00
2023-04-20T20:55:17.690Z,4.47
2023-04-20T20:57:45.985Z,3.70
2023-04-20T21:00:13.794Z,4.32
2023-04-20T21:02:40.745Z,4.22
2023-04-20T21:05:07.967Z,4.65
2023-04-20T21:07:34.807Z,4.60
2023-04-20T21:10:01.740Z,4.15
2023-04-20T21:12:28.581Z,4.15
2023-04-20T21:14:55.484Z,4.57
2023-04-20T21:17:22.432Z,3.92
2023-04-20T21:19:49.260Z,4.43
2023-04-20T21:22:16.064Z,5.47
2023-04-20T21:24:42.998Z,5.72
2023-04-20T21:27:10.051Z,5.18
2023-04-20T21:29:36.829Z,5.35
2023-04-20T21:32:03.865Z,5.35
2023-04-20T21:34:31.353Z,5.60
2023-04-20T21:37:05.277Z,5.53
2023-04-20T21:39:32.486Z,5.88
2023-04-20T21:41:59.881Z,5.25
2023-04-20T21:44:27.073Z,4.82
2023-04-20T21:46:53.955Z,5.22
2023-04-20T21:49:20.959Z,6.03
2023-04-20T21:51:47.871Z,5.70
2023-04-20T21:54:14.860Z,5.22
2023-04-20T21:56:41.858Z,5.93
2023-04-20T21:59:08.904Z,5.32
2023-04-20T22:01:35.798Z,5.28
2023-04-20T22:04:03.321Z,5.25
2023-04-20T22:06:31.998Z,5.45
2023-04-20T22:08:58.944Z,6.43
2023-04-20T22:11:26.003Z,6.05
2023-04-20T22:13:52.929Z,6.25
2023-04-20T22:16:21.266Z,6.22
2023-04-20T22:18:49.099Z,6.30
2023-04-20T22:21:15.964Z,6.05
2023-04-20T22:23:42.982Z,6.72
2023-04-20T22:26:12.272Z,6.80
2023-04-20T22:28:39.421Z,6.30
2023-04-20T22:31:06.303Z,7.43
2023-04-20T22:33:33.757Z,7.15
2023-04-20T22:36:01.188Z,7.38
2023-04-20T22:38:28.253Z,6.50
2023-04-20T22:40:55.128Z,7.78
2023-04-20T22:43:22.446Z,8.60
2023-04-20T22:45:49.379Z,8.05
2023-04-20T22:48:16.341Z,6.93
2023-04-20T22:50:43.608Z,6.35
2023-04-20T22:53:10.567Z,7.57
2023-04-20T22:55:39.306Z,7.63
2023-04-20T22:58:06.261Z,6.93
2023-04-20T23:00:33.323Z,7.22
2023-04-20T23:03:00.413Z,7.15
2023-04-20T23:05:27.507Z,7.93
2023-04-20T23:07:55.124Z,7.60
2023-04-20T23:10:22.340Z,7.32
2023-04-20T23:12:49.687Z,7.28
2023-04-20T23:15:16.621Z,7.00
2023-04-20T23:17:43.593Z,6.70
2023-04-20T23:20:13.798Z,7.72
2023-04-20T23:22:40.876Z,7.47
2023-04-20T23:25:09.864Z,7.03
2023-04-20T23:27:39.798Z,6.88
2023-04-20T23:30:07.448Z,6.60
2023-04-20T23:32:34.301Z,7.80
2023-04-20T23:35:01.431Z,7.82
2023-04-20T23:37:28.295Z,7.70
2023-04-20T23:39:55.312Z,6.95
2023-04-20T23:42:22.215Z,7.18
2023-04-20T23:44:49.019Z,8.05
2023-04-20T23:47:15.985Z,6.72
2023-04-20T23:49:42.741Z,8.30
2023-04-20T23:52:09.575Z,7.90
2023-04-20T23:54:36.516Z,8.40
2023-04-20T23:57:03.532Z,7.70
2023-04-20T23:59:30.552Z,7.95
